createdAt,value
2022-10-25T00:01:23.694Z,13.80
2022-10-25T00:03:54.169Z,13.70
2022-10-25T00:06:23.157Z,13.60
2022-10-25T00:08:52.010Z,13.60
2022-10-25T00:11:22.449Z,13.60
2022-10-25T00:13:51.139Z,13.70
2022-10-25T00:16:22.697Z,13.70
2022-10-25T00:18:50.958Z,13.70
2022-10-25T00:21:21.204Z,13.70
2022-10-25T00:23:49.622Z,13.70
2022-10-25T00:26:17.877Z,13.70
2022-10-25T00:28:46.247Z,13.70
2022-10-25T00:31:16.020Z,13.70
2022-10-25T00:33:46.377Z,13.70
2022-10-25T00:36:16.349Z,13.70
2022-10-25T00:38:46.547Z,13.70
2022-10-25T00:41:16.015Z,13.70
2022-10-25T00:43:47.896Z,13.70
2022-10-25T00:46:23.439Z,13.70
2022-10-25T00:48:57.235Z,13.70
2022-10-25T00:51:34.047Z,13.60
2022-10-25T00:54:03.836Z,13.70
2022-10-25T00:56:37.145Z,13.60
2022-10-25T00:59:10.565Z,13.60
2022-10-25T01:01:39.911Z,13.50
2022-10-25T01:04:12.910Z,13.50
2022-10-25T01:06:43.258Z,13.60
2022-10-25T01:09:16.711Z,13.60
2022-10-25T01:11:45.145Z,13.60
2022-10-25T01:14:15.977Z,13.60
2022-10-25T01:16:51.617Z,13.50
2022-10-25T01:19:37.987Z,13.50
2022-10-25T01:22:09.971Z,13.50
2022-10-25T01:25:30.079Z,13.50
2022-10-25T01:28:06.319Z,13.50
2022-10-25T01:31:00.814Z,13.60
2022-10-25T01:33:35.329Z,13.60
2022-10-25T01:36:09.370Z,13.60
2022-10-25T01:38:42.840Z,13.60
2022-10-25T01:41:21.001Z,13.60
2022-10-25T01:43:56.817Z,13.70
2022-10-25T01:46:32.935Z,13.70
2022-10-25T01:49:06.246Z,13.70
2022-10-25T01:51:37.895Z,13.70
2022-10-25T01:54:20.236Z,13.70
2022-10-25T01:56:59.056Z,13.70
2022-10-25T02:00:01.052Z,13.60
2022-10-25T02:02:34.913Z,13.60
2022-10-25T02:05:10.763Z,13.60
2022-10-25T02:07:42.819Z,13.50
2022-10-25T02:10:17.616Z,13.50
2022-10-25T02:12:54.664Z,13.50
2022-10-25T02:15:26.369Z,13.40
2022-10-25T02:18:00.978Z,13.30
2022-10-25T02:20:32.663Z,13.40
2022-10-25T02:23:05.015Z,13.30
2022-10-25T02:25:34.664Z,13.30
2022-10-25T02:28:06.586Z,13.20
2022-10-25T02:30:39.407Z,13.20
2022-10-25T02:33:09.160Z,13.20
2022-10-25T02:35:37.539Z,13.20
2022-10-25T02:38:05.938Z,13.10
2022-10-25T02:40:34.643Z,13.20
2022-10-25T02:43:03.021Z,13.10
2022-10-25T02:45:31.418Z,13.10
2022-10-25T02:47:59.710Z,13.10
2022-10-25T02:50:29.394Z,13.10
2022-10-25T02:52:57.692Z,13.20
2022-10-25T02:55:25.969Z,13.20
2022-10-25T02:57:54.385Z,13.10
2022-10-25T03:00:22.746Z,13.10
2022-10-25T03:02:51.133Z,13.10
2022-10-25T03:05:19.404Z,13.20
2022-10-25T03:07:49.016Z,13.10
2022-10-25T03:10:17.432Z,13.10
2022-10-25T03:12:45.944Z,13.10
2022-10-25T03:15:14.372Z,13.10
2022-10-25T03:17:42.628Z,13.20
2022-10-25T03:20:11.432Z,13.30
2022-10-25T03:22:39.745Z,13.30
2022-10-25T03:25:10.175Z,13.30
2022-10-25T03:27:38.595Z,13.30
2022-10-25T03:30:07.883Z,13.20
2022-10-25T03:32:36.210Z,13.20
2022-10-25T03:35:04.700Z,13.30
2022-10-25T03:37:32.985Z,13.30
2022-10-25T03:40:01.528Z,13.20
2022-10-25T03:42:31.196Z,13.20
2022-10-25T03:44:59.491Z,13.10
2022-10-25T03:47:27.762Z,13.00
2022-10-25T03:49:55.984Z,12.90
2022-10-25T03:52:24.303Z,12.90
2022-10-25T03:54:52.580Z,13.00
2022-10-25T03:57:20.970Z,13.00
2022-10-25T03:59:50.620Z,13.10
2022-10-25T04:02:19.060Z,13.10
2022-10-25T04:04:47.402Z,13.20
2022-10-25T04:07:15.862Z,13.20
2022-10-25T04:09:44.117Z,13.30
2022-10-25T04:12:12.479Z,13.30
2022-10-25T04:14:40.764Z,13.40
2022-10-25T04:17:10.381Z,13.40
2022-10-25T04:19:38.707Z,13.40
2022-10-25T04:22:06.915Z,13.40
2022-10-25T04:24:35.271Z,13.40
2022-10-25T04:27:03.513Z,13.40
2022-10-25T04:29:31.813Z,13.30
2022-10-25T04:32:00.127Z,13.30
2022-10-25T04:34:29.729Z,13.20
2022-10-25T04:36:58.053Z,13.20
2022-10-25T04:39:26.415Z,13.20
2022-10-25T04:41:54.676Z,13.20
2022-10-25T04:44:22.904Z,13.10
2022-10-25T04:46:51.807Z,13.10
2022-10-25T04:49:21.341Z,13.10
2022-10-25T04:54:24.269Z,13.10
2022-10-25T04:56:52.571Z,13.00
2022-10-25T04:59:20.777Z,13.00
2022-10-25T05:01:49.169Z,12.80
2022-10-25T05:04:17.576Z,12.80
2022-10-25T05:06:45.814Z,12.70
2022-10-25T05:09:15.437Z,12.70
2022-10-25T05:11:43.705Z,12.70
2022-10-25T05:14:12.100Z,12.70
2022-10-25T05:16:40.384Z,12.80
2022-10-25T05:19:08.750Z,12.80
2022-10-25T05:21:36.977Z,12.80
2022-10-25T05:24:05.744Z,12.70
2022-10-25T05:26:36.631Z,12.70
2022-10-25T05:29:09.340Z,12.70
2022-10-25T05:31:39.169Z,12.70
2022-10-25T05:34:07.722Z,12.70
2022-10-25T05:36:36.041Z,12.60
2022-10-25T05:39:04.521Z,12.60
2022-10-25T05:41:36.099Z,12.60
2022-10-25T05:44:07.217Z,12.60
2022-10-25T05:46:35.786Z,12.50
2022-10-25T05:49:04.824Z,12.50
2022-10-25T05:51:36.178Z,12.60
2022-10-25T05:54:07.548Z,12.60
2022-10-25T05:56:37.309Z,12.50
2022-10-25T05:59:09.883Z,12.50
2022-10-25T06:01:40.461Z,12.40
2022-10-25T06:04:09.831Z,12.40
2022-10-25T06:06:38.805Z,12.40
2022-10-25T06:09:07.781Z,12.40
2022-10-25T06:11:37.927Z,12.40
2022-10-25T06:14:08.329Z,12.40
2022-10-25T06:16:39.046Z,12.50
2022-10-25T06:19:07.407Z,12.50
2022-10-25T06:21:35.686Z,12.40
2022-10-25T06:24:04.343Z,12.40
2022-10-25T06:26:32.714Z,12.40
2022-10-25T06:29:02.675Z,12.50
2022-10-25T06:31:33.070Z,12.40
2022-10-25T06:34:01.641Z,12.40
2022-10-25T06:36:31.310Z,12.40
2022-10-25T06:39:05.907Z,12.40
2022-10-25T06:41:37.047Z,12.40
2022-10-25T06:44:07.186Z,12.50
2022-10-25T06:49:27.962Z,12.50
2022-10-25T06:51:56.291Z,12.60
2022-10-25T06:54:26.826Z,12.60
2022-10-25T06:56:55.144Z,12.60
2022-10-25T06:59:23.692Z,12.60
2022-10-25T07:01:55.535Z,12.70
2022-10-25T07:04:23.930Z,12.70
2022-10-25T07:06:55.121Z,12.80
2022-10-25T07:09:23.980Z,12.80
2022-10-25T07:11:52.289Z,12.90
2022-10-25T07:14:20.504Z,12.90
2022-10-25T07:16:48.738Z,13.00
2022-10-25T07:19:18.565Z,13.00
2022-10-25T07:21:46.789Z,13.00
2022-10-25T07:24:15.130Z,13.10
2022-10-25T07:26:43.426Z,13.10
2022-10-25T07:29:11.716Z,13.10
2022-10-25T07:31:43.238Z,13.10
2022-10-25T07:34:13.477Z,13.10
2022-10-25T07:36:43.467Z,13.10
2022-10-25T07:39:11.826Z,13.10
2022-10-25T07:41:40.040Z,13.10
2022-10-25T07:44:13.024Z,13.20
2022-10-25T07:46:44.477Z,13.20
2022-10-25T07:49:12.879Z,13.20
2022-10-25T07:51:42.669Z,13.30
2022-10-25T07:54:10.955Z,13.30
2022-10-25T07:56:39.283Z,13.30
2022-10-25T07:59:07.543Z,13.40
2022-10-25T08:01:36.760Z,13.60
2022-10-25T08:04:05.413Z,13.80
2022-10-25T08:06:33.723Z,13.90
2022-10-25T08:09:14.216Z,14.10
2022-10-25T08:11:43.528Z,14.10
2022-10-25T08:14:11.939Z,14.20
2022-10-25T08:16:40.129Z,14.30
2022-10-25T08:19:08.534Z,14.30
2022-10-25T08:21:36.806Z,14.40
2022-10-25T08:24:07.392Z,14.50
2022-10-25T08:26:37.041Z,14.60
2022-10-25T08:29:05.659Z,14.80
2022-10-25T08:31:33.921Z,15.00
2022-10-25T08:34:02.289Z,15.20
2022-10-25T08:36:30.582Z,15.10
2022-10-25T08:38:58.844Z,15.00
2022-10-25T08:41:41.567Z,15.00
2022-10-25T08:44:30.847Z,15.10
2022-10-25T08:47:03.129Z,15.10
2022-10-25T08:49:41.187Z,15.10
2022-10-25T08:52:19.820Z,15.10
2022-10-25T08:54:48.481Z,15.20
2022-10-25T08:57:24.575Z,15.20
2022-10-25T08:59:55.304Z,15.20
2022-10-25T09:02:34.771Z,15.20
2022-10-25T09:05:03.236Z,15.50
2022-10-25T09:07:57.545Z,15.60
2022-10-25T09:10:41.776Z,15.80
2022-10-25T09:13:23.155Z,16.00
2022-10-25T09:16:01.401Z,16.30
2022-10-25T09:18:37.419Z,16.60
2022-10-25T09:21:14.898Z,16.60
2022-10-25T09:23:57.260Z,16.70
2022-10-25T09:26:40.019Z,16.80
2022-10-25T09:29:24.991Z,17.00
2022-10-25T09:31:57.866Z,17.30
2022-10-25T09:34:28.915Z,17.30
2022-10-25T09:37:05.297Z,17.30
2022-10-25T09:39:40.037Z,17.30
2022-10-25T09:42:19.111Z,17.30
2022-10-25T09:44:53.134Z,17.00
2022-10-25T09:47:31.266Z,16.90
2022-10-25T09:50:03.634Z,16.90
2022-10-25T09:52:40.393Z,16.70
2022-10-25T09:55:32.509Z,16.60
2022-10-25T09:58:01.993Z,16.50
2022-10-25T10:00:31.857Z,16.30
2022-10-25T10:03:01.109Z,16.20
2022-10-25T10:05:30.482Z,16.10
2022-10-25T10:07:58.782Z,16.20
2022-10-25T10:10:36.116Z,16.30
2022-10-25T10:13:11.879Z,16.50
2022-10-25T10:15:51.710Z,16.80
2022-10-25T10:18:28.926Z,17.00
2022-10-25T10:21:13.655Z,17.20
2022-10-25T10:23:52.609Z,17.40
2022-10-25T10:26:29.360Z,17.50
2022-10-25T10:29:08.871Z,17.60
2022-10-25T10:31:42.001Z,17.50
2022-10-25T10:34:25.117Z,17.60
2022-10-25T10:37:08.182Z,17.60
2022-10-25T10:39:36.460Z,17.60
2022-10-25T10:42:16.725Z,17.60
2022-10-25T10:45:02.795Z,17.40
2022-10-25T10:47:36.302Z,17.40
2022-10-25T10:50:13.228Z,17.60
2022-10-25T10:52:45.448Z,18.10
2022-10-25T10:55:21.647Z,18.30
2022-10-25T10:57:50.079Z,18.30
2022-10-25T11:00:26.268Z,18.20
2022-10-25T11:05:31.766Z,18.40
2022-10-25T11:08:01.835Z,18.30
2022-10-25T11:10:32.881Z,18.30
2022-10-25T11:13:16.688Z,18.30
2022-10-25T11:16:11.375Z,18.60
2022-10-25T11:18:51.070Z,18.90
2022-10-25T11:21:45.634Z,19.10
2022-10-25T11:24:25.909Z,19.30
2022-10-25T11:27:05.128Z,19.30
2022-10-25T11:29:50.062Z,19.50
2022-10-25T11:32:43.830Z,19.60
2022-10-25T11:35:34.553Z,19.30
2022-10-25T11:38:08.380Z,18.90
2022-10-25T11:40:41.165Z,18.70
2022-10-25T11:43:28.044Z,18.70
2022-10-25T11:46:04.844Z,19.00
2022-10-25T11:48:48.141Z,19.40
2022-10-25T11:51:25.946Z,19.60
2022-10-25T11:54:14.521Z,19.70
2022-10-25T11:56:55.928Z,19.50
2022-10-25T11:59:31.784Z,19.20
2022-10-25T12:02:15.496Z,19.70
2022-10-25T12:05:01.096Z,19.80
2022-10-25T12:07:36.955Z,19.90
2022-10-25T12:10:15.791Z,20.00
2022-10-25T12:12:49.661Z,20.00
2022-10-25T12:15:22.709Z,19.70
2022-10-25T12:17:52.468Z,19.50
2022-10-25T12:20:25.313Z,19.70
2022-10-25T12:22:58.717Z,20.00
2022-10-25T12:25:31.171Z,19.90
2022-10-25T12:28:12.215Z,19.90
2022-10-25T12:30:42.372Z,19.60
2022-10-25T12:33:21.878Z,19.90
2022-10-25T12:35:52.339Z,20.30
2022-10-25T12:38:28.762Z,20.60
2022-10-25T12:41:04.508Z,20.50
2022-10-25T12:43:37.239Z,20.70
2022-10-25T12:46:50.384Z,20.70
2022-10-25T12:49:34.944Z,20.50
2022-10-25T12:52:24.907Z,20.10
2022-10-25T12:55:26.145Z,19.90
2022-10-25T12:58:05.146Z,20.10
2022-10-25T13:00:39.586Z,20.10
2022-10-25T13:03:47.055Z,20.20
2022-10-25T13:06:38.318Z,20.40
2022-10-25T13:09:10.021Z,20.70
2022-10-25T13:11:43.449Z,20.60
2022-10-25T13:14:24.681Z,20.90
2022-10-25T13:17:42.231Z,20.40
2022-10-25T13:20:48.967Z,20.00
2022-10-25T13:24:00.603Z,19.70
2022-10-25T13:26:34.624Z,19.50
2022-10-25T13:29:25.769Z,19.20
2022-10-25T13:32:10.276Z,19.40
2022-10-25T13:34:40.804Z,19.70
2022-10-25T13:37:41.020Z,19.80
2022-10-25T13:40:26.440Z,20.10
2022-10-25T13:43:03.613Z,20.50
2022-10-25T13:45:39.659Z,20.10
2022-10-25T13:48:23.347Z,19.70
2022-10-25T13:50:55.352Z,19.10
2022-10-25T13:53:26.132Z,18.60
2022-10-25T13:56:05.206Z,18.60
2022-10-25T13:58:49.546Z,19.00
2022-10-25T14:01:57.163Z,19.40
2022-10-25T14:04:41.543Z,19.70
2022-10-25T14:07:47.036Z,19.90
2022-10-25T14:10:34.102Z,20.10
2022-10-25T14:13:23.232Z,20.10
2022-10-25T14:15:58.480Z,19.90
2022-10-25T14:18:28.014Z,20.00
2022-10-25T14:21:01.860Z,20.10
2022-10-25T14:23:34.726Z,20.10
2022-10-25T14:26:06.227Z,20.30
2022-10-25T14:28:35.844Z,20.10
2022-10-25T14:31:05.961Z,20.10
2022-10-25T14:33:39.365Z,20.00
2022-10-25T14:36:28.300Z,19.50
2022-10-25T14:38:58.357Z,19.10
2022-10-25T14:41:28.403Z,18.70
2022-10-25T14:43:57.291Z,18.50
2022-10-25T14:46:27.182Z,18.30
2022-10-25T14:48:58.546Z,18.10
2022-10-25T14:51:32.007Z,18.00
2022-10-25T14:54:03.503Z,17.90
2022-10-25T14:56:35.597Z,17.80
2022-10-25T14:59:08.777Z,17.80
2022-10-25T15:01:54.054Z,17.70
2022-10-25T15:04:28.617Z,17.60
2022-10-25T15:06:58.855Z,17.50
2022-10-25T15:09:42.271Z,17.40
2022-10-25T15:12:19.557Z,17.30
2022-10-25T15:14:48.414Z,17.20
2022-10-25T15:17:20.663Z,17.20
2022-10-25T15:20:02.904Z,17.10
2022-10-25T15:22:34.743Z,17.10
2022-10-25T15:25:02.972Z,17.00
2022-10-25T15:27:35.784Z,17.00
2022-10-25T15:30:04.998Z,17.00
2022-10-25T15:32:34.311Z,16.90
2022-10-25T15:35:03.584Z,16.90
2022-10-25T15:37:33.239Z,16.80
2022-10-25T15:40:01.532Z,16.80
2022-10-25T15:42:29.830Z,16.70
2022-10-25T15:44:58.459Z,16.60
2022-10-25T15:47:32.821Z,16.40
2022-10-25T15:50:03.410Z,16.30
2022-10-25T15:52:33.032Z,16.30
2022-10-25T15:55:01.367Z,16.20
2022-10-25T15:57:29.749Z,16.20
2022-10-25T15:59:58.171Z,16.20
2022-10-25T16:02:28.683Z,16.10
2022-10-25T16:04:57.020Z,16.00
2022-10-25T16:07:25.416Z,15.90
2022-10-25T16:09:55.158Z,15.80
2022-10-25T16:12:31.178Z,15.60
2022-10-25T16:14:59.542Z,15.50
2022-10-25T16:17:28.262Z,15.40
2022-10-25T16:19:56.788Z,15.30
2022-10-25T16:22:25.209Z,15.20
2022-10-25T16:24:54.897Z,15.30
2022-10-25T16:27:23.249Z,15.30
2022-10-25T16:29:51.560Z,15.20
2022-10-25T16:32:20.353Z,15.20
2022-10-25T16:34:48.629Z,15.00
2022-10-25T16:37:16.900Z,14.90
2022-10-25T16:39:45.166Z,14.70
2022-10-25T16:42:30.723Z,14.60
2022-10-25T16:44:59.756Z,14.50
2022-10-25T16:47:28.812Z,14.40
2022-10-25T16:49:57.314Z,14.20
2022-10-25T16:52:25.656Z,14.10
2022-10-25T16:54:54.024Z,13.90
2022-10-25T16:57:25.034Z,13.80
2022-10-25T16:59:54.678Z,13.80
2022-10-25T17:02:26.137Z,13.90
2022-10-25T17:04:54.714Z,13.80
2022-10-25T17:07:23.049Z,13.70
2022-10-25T17:09:51.347Z,13.60
2022-10-25T17:12:19.804Z,13.60
2022-10-25T17:14:48.263Z,13.50
2022-10-25T17:17:17.927Z,13.40
2022-10-25T17:19:46.239Z,13.20
2022-10-25T17:22:17.024Z,13.20
2022-10-25T17:24:45.362Z,13.10
2022-10-25T17:27:13.676Z,13.00
2022-10-25T17:29:42.035Z,13.00
2022-10-25T17:32:10.375Z,13.10
2022-10-25T17:34:40.131Z,13.00
2022-10-25T17:37:08.361Z,13.00
2022-10-25T17:39:36.729Z,13.00
2022-10-25T17:42:05.334Z,13.00
2022-10-25T17:44:33.653Z,12.90
2022-10-25T17:47:03.224Z,12.90
2022-10-25T17:49:31.721Z,12.80
2022-10-25T17:52:01.546Z,12.70
2022-10-25T17:54:29.804Z,12.60
2022-10-25T17:57:01.274Z,12.40
2022-10-25T17:59:30.343Z,12.20
2022-10-25T18:01:58.938Z,12.10
2022-10-25T18:04:27.479Z,12.20
2022-10-25T18:06:55.945Z,12.20
2022-10-25T18:09:25.621Z,12.20
2022-10-25T18:11:53.867Z,12.20
2022-10-25T18:14:22.242Z,12.20
2022-10-25T18:16:51.472Z,12.10
2022-10-25T18:19:19.772Z,12.10
2022-10-25T18:21:48.025Z,12.10
2022-10-25T18:24:16.606Z,12.10
2022-10-25T18:26:46.222Z,12.00
2022-10-25T18:29:14.472Z,11.90
2022-10-25T18:31:42.850Z,11.80
2022-10-25T18:34:11.236Z,11.70
2022-10-25T18:36:39.513Z,11.80
2022-10-25T18:39:07.960Z,11.70
2022-10-25T18:41:36.480Z,11.70
2022-10-25T18:44:08.453Z,11.70
2022-10-25T18:46:38.691Z,11.70
2022-10-25T18:49:07.174Z,11.70
2022-10-25T18:51:35.455Z,11.70
2022-10-25T18:54:04.388Z,11.70
2022-10-25T18:56:32.831Z,11.70
2022-10-25T18:59:01.336Z,11.80
2022-10-25T19:01:33.405Z,11.80
2022-10-25T19:04:04.420Z,11.80
2022-10-25T19:06:33.813Z,11.90
2022-10-25T19:09:04.692Z,12.00
2022-10-25T19:11:34.798Z,12.00
2022-10-25T19:14:05.159Z,12.10
2022-10-25T19:16:36.012Z,12.30
2022-10-25T19:19:07.061Z,12.30
2022-10-25T19:21:35.553Z,12.40
2022-10-25T19:24:04.196Z,12.40
2022-10-25T19:26:32.547Z,12.30
2022-10-25T19:29:02.414Z,12.30
2022-10-25T19:31:30.977Z,12.20
2022-10-25T19:34:03.065Z,12.20
2022-10-25T19:36:32.142Z,12.20
2022-10-25T19:39:01.852Z,12.20
2022-10-25T19:41:30.506Z,12.20
2022-10-25T19:43:59.453Z,12.20
2022-10-25T19:46:27.750Z,12.30
2022-10-25T19:49:00.259Z,12.50
2022-10-25T19:51:30.138Z,12.60
2022-10-25T19:53:58.399Z,12.60
2022-10-25T19:56:26.653Z,12.60
2022-10-25T19:58:54.935Z,12.60
2022-10-25T20:01:27.273Z,12.60
2022-10-25T20:03:57.747Z,12.60
2022-10-25T20:06:28.463Z,12.50
2022-10-25T20:08:59.268Z,12.40
2022-10-25T20:11:29.093Z,12.30
2022-10-25T20:13:59.677Z,12.20
2022-10-25T20:16:29.335Z,12.20
2022-10-25T20:18:59.556Z,12.20
2022-10-25T20:21:31.540Z,12.20
2022-10-25T20:24:03.765Z,12.10
2022-10-25T20:26:34.131Z,12.20
2022-10-25T20:29:05.740Z,12.20
2022-10-25T20:31:35.500Z,12.30
2022-10-25T20:34:03.785Z,12.30
2022-10-25T20:36:32.494Z,12.20
2022-10-25T20:39:02.103Z,12.20
2022-10-25T20:41:31.595Z,12.30
2022-10-25T20:44:02.976Z,12.30
2022-10-25T20:46:31.671Z,12.30
2022-10-25T20:49:00.837Z,12.30
2022-10-25T20:51:29.506Z,12.30
2022-10-25T20:53:57.989Z,12.40
2022-10-25T20:56:27.749Z,12.30
2022-10-25T20:58:56.058Z,12.30
2022-10-25T21:01:24.521Z,12.50
2022-10-25T21:03:54.290Z,12.50
2022-10-25T21:06:22.564Z,12.50
2022-10-25T21:08:50.834Z,12.60
2022-10-25T21:11:21.466Z,12.60
2022-10-25T21:13:51.116Z,12.60
2022-10-25T21:16:19.383Z,12.60
2022-10-25T21:18:47.784Z,12.60
2022-10-25T21:21:19.022Z,12.70
2022-10-25T21:23:47.794Z,12.80
2022-10-25T21:26:25.333Z,12.80
2022-10-25T21:28:54.940Z,12.80
2022-10-25T21:31:23.256Z,12.90
2022-10-25T21:33:52.500Z,12.90
2022-10-25T21:36:23.157Z,13.00
2022-10-25T21:38:51.544Z,13.10
2022-10-25T21:41:26.518Z,13.10
2022-10-25T21:43:57.276Z,13.10
2022-10-25T21:46:27.493Z,13.10
2022-10-25T21:48:55.992Z,13.10
2022-10-25T21:51:25.387Z,13.10
2022-10-25T21:53:54.508Z,13.10
2022-10-25T21:56:30.569Z,13.10
2022-10-25T21:59:01.830Z,13.10
2022-10-25T22:01:31.557Z,13.10
2022-10-25T22:04:00.101Z,13.10
2022-10-25T22:06:28.997Z,13.00
2022-10-25T22:08:57.746Z,13.00
2022-10-25T22:11:28.379Z,13.00
2022-10-25T22:13:57.724Z,13.10
2022-10-25T22:16:28.047Z,13.10
2022-10-25T22:18:59.015Z,13.10
2022-10-25T22:21:32.144Z,13.20
2022-10-25T22:24:00.641Z,13.20
2022-10-25T22:26:29.630Z,13.30
2022-10-25T22:28:59.519Z,13.40
2022-10-25T22:31:30.625Z,13.30
2022-10-25T22:34:00.429Z,13.40
2022-10-25T22:36:30.714Z,13.30
2022-10-25T22:38:59.463Z,13.30
2022-10-25T22:41:29.665Z,13.30
2022-10-25T22:43:58.707Z,13.30
2022-10-25T22:46:32.015Z,13.30
2022-10-25T22:49:07.132Z,13.20
2022-10-25T22:51:35.796Z,13.20
2022-10-25T22:54:04.100Z,13.20
2022-10-25T22:56:33.258Z,13.30
2022-10-25T22:59:03.136Z,13.20
2022-10-25T23:01:33.753Z,13.20
2022-10-25T23:04:04.265Z,13.20
2022-10-25T23:06:34.599Z,13.20
2022-10-25T23:09:05.529Z,13.20
2022-10-25T23:11:35.376Z,13.20
2022-10-25T23:14:05.299Z,13.20
2022-10-25T23:16:35.178Z,13.20
2022-10-25T23:19:03.759Z,13.10
2022-10-25T23:21:32.127Z,13.20
2022-10-25T23:24:01.213Z,13.10
2022-10-25T23:26:32.362Z,13.20
2022-10-25T23:29:01.787Z,13.10
2022-10-25T23:31:31.292Z,13.20
2022-10-25T23:34:02.104Z,13.10
2022-10-25T23:36:37.554Z,13.10
2022-10-25T23:39:07.825Z,13.10
2022-10-25T23:41:39.256Z,13.10
2022-10-25T23:44:07.690Z,13.00
2022-10-25T23:46:35.948Z,13.00
2022-10-25T23:49:05.654Z,12.90
2022-10-25T23:51:33.958Z,13.00
2022-10-25T23:54:02.144Z,13.00
2022-10-25T23:56:30.589Z,13.00
2022-10-25T23:58:58.833Z,13.10
